עמוד ראשי
METAR-TAF:

METAR-TAF

שדות תעופה :

Marathon, פלורידה, ארצות הברית

קו רוחב: 24-43-33N, קו אורך: 081-02-52W, גובה: 2מטר

תצפית מזג אוויר נוכחית

הדו"ח נערך לפני 14דקות, בשעה 08:53 UTC
רוח 6קשר מכיוון דרום-מזרח
טמפרטורת 28 צלסיוס
לחות 84%
לחץ 1014 hPa
ראות: 16.1קילומטר
מעט עננים בגובה 1900רגל

METAR: KMTH 270853Z AUTO 13006KT 10SM FEW019 28/25 A2994 RMK AO2 SLP138 T02830250 56012 $

זמן: 05:07 (09:07 UTC)

תחזית

הדו"ח נערך לפני 3 שעות ו 42דקות, בשעה 05:25 UTC
תחזית בתוקף מ 27 ב 06 UTC עד 28 ב 06 UTC
רוח 4קשר עם כיוונים משתנים
ראות: 10קילומטר
מעט עננים בגובה 2500רגל
מ 27 ב 1000UTC
רוח 5קשר מכיוון דרום-מזרח
ראות: 10קילומטר
מעט עננים בגובה 2500רגל

TAF: KMTH 270525Z 2706/2806 VRB04KT P6SM FEW025 FM271000 13005KT P6SM FEW025

תצפיות ותחזיות מזג אוויר לגבי יותר מ- 4,000 שדות תעופה ברחבי העולם. דוחות METAR ו- TAF.

התחנות הזמינות מסומנות בנקודות צהובות ואדומות על גבי המפה.

העבר את העכבר לנקודה הצבעונית על מנת לראות את שם התחנה.

לאחר מכן, לחץ כדי לראות את תוכן ואת תחזיות מזג האוויר.

כדי לשנות את המפה: לחץ על הכפתורים הירוקים עם הפלוס השחור כדי להתקרב; על הכפתור הירוק עם המקף כדי להתרחק; או בחיצים הירוקים למפות סמוכות.


METAR-TAF: